Time;durP1;ratioP1;P1;durP2;ratioP2;P2;SDS_P1;SDS_P2;PMS_P1;PMS_P2;Temp;Humidity;BMP_temperature;BMP_pressure;BME280_temperature;BME280_humidity;BME280_pressure;Samples;Min_cycle;Max_cycle;Signal;HPM_P1;HPM_P2
2023/12/20 00:01:54;;;;;;;1.33;1.23;;;9.00;99.90;;;;;;4978201;28;20210;-83
2023/12/20 00:04:20;;;;;;;2.50;1.27;;;9.10;99.90;;;;;;4978765;28;20208;-83
2023/12/20 00:06:46;;;;;;;1.40;1.27;;;8.10;99.90;;;;;;4979426;28;20638;-83
2023/12/20 00:09:21;;;;;;;1.50;1.40;;;8.40;99.90;;;;;;4979854;28;20231;-85
2023/12/20 00:11:47;;;;;;;1.60;1.50;;;8.50;99.90;;;;;;4977881;28;20190;-83
2023/12/20 00:14:12;;;;;;;1.30;1.20;;;10.20;99.90;;;;;;4999342;28;20200;-83
2023/12/20 00:16:43;;;;;;;1.60;1.03;;;8.30;99.90;;;;;;4983505;28;20188;-83
2023/12/20 00:19:09;;;;;;;1.33;1.23;;;9.40;99.90;;;;;;5002750;28;20194;-83
2023/12/20 00:21:35;;;;;;;1.37;1.10;;;;;;;;;;4991051;28;20267;-84
2023/12/20 00:24:03;;;;;;;1.98;1.50;;;8.50;99.90;;;;;;5000196;28;20234;-84
2023/12/20 00:26:29;;;;;;;1.45;1.27;;;8.30;99.90;;;;;;4991757;28;20184;-84
2023/12/20 00:28:55;;;;;;;1.43;1.17;;;;;;;;;;4987497;28;20227;-84
2023/12/20 00:31:23;;;;;;;1.30;1.20;;;8.60;99.90;;;;;;4981914;28;20187;-84
2023/12/20 00:33:49;;;;;;;1.15;1.00;;;7.00;99.90;;;;;;4985092;28;20771;-84
2023/12/20 00:36:21;;;;;;;1.10;0.97;;;9.00;99.90;;;;;;4983326;28;20184;-84
2023/12/20 00:38:48;;;;;;;1.27;1.17;;;9.40;99.90;;;;;;4981183;28;20195;-84
2023/12/20 00:41:34;;;;;;;3.55;1.40;;;9.10;99.90;;;;;;4984243;28;20183;-84
2023/12/20 00:44:13;;;;;;;1.08;0.98;;;8.00;99.90;;;;;;5012725;28;20210;-84
2023/12/20 00:46:39;;;;;;;3.15;1.55;;;8.50;99.90;;;;;;4997684;28;20322;-83
2023/12/20 00:49:05;;;;;;;1.00;0.90;;;;;;;;;;4989907;28;20187;-83
2023/12/20 00:51:30;;;;;;;1.35;1.00;;;8.20;99.90;;;;;;4995457;28;20179;-83
2023/12/20 00:53:57;;;;;;;1.10;1.00;;;;;;;;;;4991160;28;20279;-83
2023/12/20 00:56:24;;;;;;;0.88;0.85;;;8.20;99.90;;;;;;4996311;28;20203;-84
2023/12/20 00:58:50;;;;;;;1.70;1.40;;;8.40;99.90;;;;;;5013154;28;20198;-84
2023/12/20 01:01:16;;;;;;;1.20;1.10;;;;;;;;;;4983496;28;20279;-84
2023/12/20 01:03:41;;;;;;;1.75;1.20;;;8.00;99.90;;;;;;4979862;28;20246;-84
2023/12/20 01:06:09;;;;;;;1.10;1.00;;;7.90;99.90;;;;;;4999098;28;20176;-84
2023/12/20 01:08:40;;;;;;;0.82;0.82;;;9.60;99.90;;;;;;4997561;28;20196;-84
2023/12/20 01:11:16;;;;;;;1.65;1.17;;;9.60;99.90;;;;;;4998480;28;20219;-84
2023/12/20 01:13:50;;;;;;;1.30;1.20;;;9.60;99.90;;;;;;4997998;28;20207;-83
2023/12/20 01:16:18;;;;;;;1.20;1.08;;;8.70;99.90;;;;;;4979707;28;20194;-84
2023/12/20 01:18:46;;;;;;;1.33;1.23;;;7.90;99.90;;;;;;4982727;28;20184;-84
2023/12/20 01:21:12;;;;;;;1.70;1.13;;;8.10;99.90;;;;;;4984537;28;20192;-84
2023/12/20 01:23:38;;;;;;;2.03;1.23;;;7.30;99.90;;;;;;4977045;28;20192;-84
2023/12/20 01:26:05;;;;;;;1.43;1.20;;;;;;;;;;4978413;28;20418;-84
2023/12/20 01:28:36;;;;;;;1.15;1.05;;;8.10;99.90;;;;;;4978389;28;20283;-84
2023/12/20 01:31:05;;;;;;;1.25;1.08;;;7.00;99.90;;;;;;4996168;28;20689;-84
2023/12/20 01:33:33;;;;;;;1.25;1.08;;;7.90;99.90;;;;;;4976528;28;20278;-83
2023/12/20 01:36:03;;;;;;;1.30;1.20;;;8.60;99.90;;;;;;4980939;28;20192;-84
2023/12/20 01:38:29;;;;;;;2.40;1.23;;;7.70;99.90;;;;;;4995997;28;20194;-84
2023/12/20 01:40:57;;;;;;;1.87;1.50;;;7.70;99.90;;;;;;4977825;28;20196;-84
2023/12/20 01:43:22;;;;;;;1.35;1.25;;;7.70;99.90;;;;;;4995631;28;20280;-84
2023/12/20 01:45:48;;;;;;;3.80;1.63;;;7.30;99.90;;;;;;4998644;28;20180;-84
2023/12/20 01:48:23;;;;;;;1.67;1.20;;;9.90;99.90;;;;;;4979881;28;20184;-84
2023/12/20 01:50:49;;;;;;;1.75;1.50;;;9.50;99.90;;;;;;4974617;28;20691;-84
2023/12/20 01:53:15;;;;;;;1.83;1.53;;;8.20;99.90;;;;;;4978654;28;20184;-84
2023/12/20 01:55:44;;;;;;;1.20;0.98;;;9.50;99.90;;;;;;4976039;28;20453;-84
2023/12/20 01:58:14;;;;;;;1.30;1.00;;;9.70;99.90;;;;;;4976907;28;20274;-84
2023/12/20 02:00:42;;;;;;;1.10;1.00;;;8.40;99.90;;;;;;4978466;28;20187;-84
2023/12/20 02:03:08;;;;;;;1.10;1.00;;;8.00;99.90;;;;;;4978080;28;20199;-84
2023/12/20 02:05:38;;;;;;;1.17;1.08;;;8.50;99.90;;;;;;4995113;28;20203;-84
2023/12/20 02:08:06;;;;;;;0.90;0.90;;;8.60;99.90;;;;;;4974579;28;20207;-84
2023/12/20 02:10:32;;;;;;;1.10;1.00;;;8.80;99.90;;;;;;4993147;28;20215;-84
2023/12/20 02:13:01;;;;;;;1.03;0.93;;;8.10;99.90;;;;;;4975707;28;20187;-84
2023/12/20 02:15:27;;;;;;;1.20;0.90;;;9.50;99.90;;;;;;4994917;28;20242;-84
2023/12/20 02:17:53;;;;;;;1.60;1.13;;;8.80;99.90;;;;;;4976017;28;20580;-84
2023/12/20 02:20:19;;;;;;;1.23;1.08;;;7.80;99.90;;;;;;4998281;28;20192;-84
2023/12/20 02:22:45;;;;;;;1.60;1.37;;;8.70;99.90;;;;;;5001275;28;20190;-84
2023/12/20 02:25:13;;;;;;;1.77;1.43;;;6.60;99.90;;;;;;4998462;28;20468;-84
2023/12/20 02:27:42;;;;;;;2.83;1.67;;;9.50;99.90;;;;;;4997605;28;20430;-84
2023/12/20 02:30:10;;;;;;;2.22;1.40;;;10.20;99.90;;;;;;5002690;28;20229;-84
2023/12/20 02:32:35;;;;;;;3.17;1.65;;;7.60;99.90;;;;;;4998778;28;20179;-84
2023/12/20 02:35:01;;;;;;;1.60;1.50;;;;;;;;;;5002393;28;20199;-84
2023/12/20 02:37:27;;;;;;;1.40;1.30;;;7.50;99.90;;;;;;4996171;28;20248;-84
2023/12/20 02:39:53;;;;;;;1.30;1.20;;;6.60;99.90;;;;;;4999659;28;20176;-84
2023/12/20 02:42:18;;;;;;;1.50;1.40;;;7.50;99.90;;;;;;5015907;28;20190;-84
2023/12/20 02:44:44;;;;;;;1.60;1.20;;;7.60;99.90;;;;;;4997081;28;20259;-84
2023/12/20 02:47:09;;;;;;;1.90;1.40;;;7.50;99.90;;;;;;4996002;28;20832;-84
2023/12/20 02:49:35;;;;;;;1.30;1.20;;;9.10;99.90;;;;;;5005932;28;20214;-84
2023/12/20 02:52:01;;;;;;;1.67;1.43;;;8.20;99.90;;;;;;4982436;28;20282;-84
2023/12/20 02:54:26;;;;;;;1.87;1.67;;;8.00;99.90;;;;;;4985695;28;20262;-84
2023/12/20 02:57:02;;;;;;;1.50;1.40;;;8.60;99.90;;;;;;4979721;28;20187;-84
2023/12/20 02:59:30;;;;;;;1.60;1.50;;;8.90;99.90;;;;;;4998477;28;20306;-84
2023/12/20 03:01:55;;;;;;;2.22;1.20;;;8.60;99.90;;;;;;4986731;28;20199;-84
2023/12/20 03:04:21;;;;;;;1.10;1.00;;;;;;;;;;4982199;28;20254;-84
2023/12/20 03:06:47;;;;;;;1.30;1.20;;;7.70;99.90;;;;;;4979336;28;20191;-84
2023/12/20 03:09:13;;;;;;;1.20;1.10;;;;;;;;;;4996684;28;20473;-84
2023/12/20 03:11:39;;;;;;;1.42;1.33;;;7.70;99.90;;;;;;4981107;28;20179;-84
2023/12/20 03:14:04;;;;;;;1.20;1.10;;;9.20;99.90;;;;;;4980724;28;20210;-83
2023/12/20 03:16:32;;;;;;;1.10;1.00;;;;;;;;;;4981187;28;20186;-84
2023/12/20 03:18:58;;;;;;;2.35;1.30;;;7.80;99.90;;;;;;4983586;28;20191;-84
2023/12/20 03:21:24;;;;;;;1.37;1.27;;;;;;;;;;4980657;28;20486;-84
2023/12/20 03:23:51;;;;;;;1.30;1.20;;;7.90;99.90;;;;;;4980394;28;20656;-84
2023/12/20 03:26:16;;;;;;;1.38;1.20;;;9.40;99.90;;;;;;4996314;28;20195;-84
2023/12/20 03:28:42;;;;;;;1.70;1.50;;;8.00;99.90;;;;;;4991492;28;20184;-84
2023/12/20 03:31:09;;;;;;;1.93;1.73;;;8.10;99.90;;;;;;4995567;28;20235;-84
2023/12/20 03:33:36;;;;;;;1.90;1.80;;;7.70;99.90;;;;;;4979207;28;20183;-84
2023/12/20 03:36:02;;;;;;;2.10;1.40;;;7.60;99.90;;;;;;4983946;28;20179;-84
2023/12/20 03:42:43;;;;;;;1.10;1.10;;;8.10;99.90;;;;;;4975150;28;20195;-84
2023/12/20 05:54:06;;;;;;;0.60;0.50;;;6.50;99.90;;;;;;4993308;28;20251;-84
2023/12/20 05:57:10;;;;;;;0.85;0.70;;;7.80;99.90;;;;;;4979596;28;20188;-84
2023/12/20 06:00:18;;;;;;;3.47;1.75;;;7.60;99.90;;;;;;4963784;28;20206;-84
2023/12/20 06:02:45;;;;;;;0.80;0.60;;;7.40;99.90;;;;;;4999564;28;20176;-84
2023/12/20 06:05:23;;;;;;;0.90;0.70;;;6.80;99.90;;;;;;4987757;28;20576;-84
2023/12/20 06:07:56;;;;;;;1.25;0.70;;;8.50;99.90;;;;;;4976691;28;20183;-84
2023/12/20 06:11:06;;;;;;;0.68;0.60;;;7.10;99.90;;;;;;4977963;28;20215;-85
2023/12/20 06:16:15;;;;;;;0.90;0.80;;;7.40;99.90;;;;;;5127710;22;20608;-84
2023/12/20 06:19:47;;;;;;;2.40;1.00;;;7.40;99.90;;;;;;5015663;28;20312;-83
2023/12/20 06:26:14;;;;;;;1.83;1.05;;;7.90;99.90;;;;;;5067407;22;20245;-84
2023/12/20 06:29:12;;;;;;;1.50;0.80;;;6.80;99.90;;;;;;5034948;28;20191;-84
2023/12/20 06:32:29;;;;;;;;;;;;;;;;;;;;;
2023/12/20 06:35:24;;;;;;;3.22;1.80;;;7.20;99.90;;;;;;5088687;22;20256;-84
2023/12/20 06:38:27;;;;;;;1.02;0.75;;;7.30;99.90;;;;;;5011595;28;20225;-84
2023/12/20 08:29:20;;;;;;;4.13;3.38;;;7.80;99.90;;;;;;5815773;22;20280;-84
2023/12/20 08:31:46;;;;;;;3.90;3.25;;;6.60;99.90;;;;;;5031130;28;20181;-85
2023/12/20 08:34:14;;;;;;;3.30;2.90;;;7.60;99.90;;;;;;5044915;28;20198;-84
2023/12/20 08:36:40;;;;;;;4.45;2.67;;;7.20;99.90;;;;;;5044321;28;20453;-84
2023/12/20 08:39:49;;;;;;;5.80;3.03;;;8.40;99.90;;;;;;5034369;28;20194;-84
2023/12/20 08:42:52;;;;;;;2.40;2.20;;;8.20;99.90;;;;;;5031692;28;20193;-84
2023/12/20 08:45:17;;;;;;;4.28;3.20;;;7.50;99.90;;;;;;5052521;23;20222;-83
2023/12/20 08:47:44;;;;;;;3.23;2.90;;;7.90;99.90;;;;;;5054374;28;20178;-84
2023/12/20 08:50:15;;;;;;;3.50;3.20;;;8.40;99.90;;;;;;5027476;28;20251;-86
2023/12/20 08:52:40;;;;;;;3.10;2.80;;;7.60;99.90;;;;;;5043928;28;20178;-86
2023/12/20 08:55:06;;;;;;;5.40;4.70;;;9.90;99.90;;;;;;5052069;28;20207;-86
2023/12/20 08:57:33;;;;;;;3.20;2.90;;;7.50;99.90;;;;;;5054187;28;20186;-86
2023/12/20 08:59:59;;;;;;;3.55;3.25;;;6.30;99.90;;;;;;5027760;28;20821;-86
2023/12/20 09:02:28;;;;;;;2.83;2.63;;;7.40;99.90;;;;;;5035832;28;20194;-87
2023/12/20 09:08:12;;;;;;;5.00;2.88;;;7.50;99.90;;;;;;5130232;22;20234;-86
2023/12/20 09:19:33;;;;;;;2.70;2.50;;;7.20;99.90;;;;;;5188916;22;20614;-86
2023/12/20 09:25:52;;;;;;;3.40;3.10;;;7.30;99.90;;;;;;5128185;22;20261;-85
2023/12/20 09:28:18;;;;;;;3.17;2.90;;;6.90;99.90;;;;;;4974566;28;20188;-86
2023/12/20 09:30:45;;;;;;;2.43;2.23;;;7.80;99.90;;;;;;4977961;28;20216;-86
2023/12/20 09:33:11;;;;;;;2.75;2.38;;;8.80;99.90;;;;;;4996663;28;20540;-86
2023/12/20 09:35:38;;;;;;;6.53;2.30;;;;;;;;;;4977269;28;20277;-86
2023/12/20 09:38:04;;;;;;;3.35;2.78;;;9.10;99.90;;;;;;5006171;28;20216;-86
2023/12/20 09:40:32;;;;;;;3.33;2.80;;;9.80;99.90;;;;;;5009039;28;20195;-86
2023/12/20 09:43:06;;;;;;;3.15;2.28;;;8.60;99.90;;;;;;4992702;28;20212;-85
2023/12/20 09:45:32;;;;;;;3.00;1.85;;;8.40;99.90;;;;;;4996536;28;20211;-85
2023/12/20 09:48:42;;;;;;;;;;;;;;;;;;;;;
2023/12/20 09:51:08;;;;;;;2.40;1.75;;;8.70;99.90;;;;;;4996468;28;20210;-84
2023/12/20 09:54:02;;;;;;;3.77;2.33;;;8.10;99.90;;;;;;4977023;28;20188;-85
2023/12/20 09:56:49;;;;;;;3.00;1.95;;;8.40;99.90;;;;;;4978726;28;20191;-85
2023/12/20 09:59:15;;;;;;;3.50;2.00;;;8.90;99.90;;;;;;4972986;28;20709;-86
2023/12/20 10:01:48;;;;;;;2.73;2.00;;;8.00;99.90;;;;;;4958828;28;20347;-86
2023/12/20 10:04:14;;;;;;;2.30;2.10;;;8.90;99.90;;;;;;5021421;22;20239;-86
2023/12/20 10:10:08;;;;;;;2.22;1.10;;;10.60;99.90;;;;;;5037955;28;20516;-88
2023/12/20 10:12:33;;;;;;;2.58;1.58;;;10.10;99.90;;;;;;5021392;28;20241;-86
2023/12/20 10:14:59;;;;;;;2.53;1.50;;;8.90;99.90;;;;;;5020748;28;20200;-86
2023/12/20 10:18:13;;;;;;;1.58;1.45;;;11.40;99.90;;;;;;4984915;28;20537;-84
2023/12/20 10:20:40;;;;;;;4.72;1.60;;;10.90;99.00;;;;;;4988326;28;20217;-85
2023/12/20 10:23:09;;;;;;;1.85;1.63;;;10.40;98.80;;;;;;5001038;28;21300;-85
2023/12/20 10:25:38;;;;;;;3.50;2.00;;;9.90;99.50;;;;;;5005696;28;20214;-84
2023/12/20 10:28:20;;;;;;;2.28;1.58;;;9.80;99.90;;;;;;5020355;28;20211;-85
2023/12/20 10:30:49;;;;;;;2.55;1.60;;;10.40;99.90;;;;;;5003070;28;20212;-85
2023/12/20 10:33:27;;;;;;;4.25;1.52;;;9.90;99.90;;;;;;5023185;28;20189;-85
2023/12/20 10:35:53;;;;;;;3.75;1.58;;;9.40;99.90;;;;;;5027560;28;20187;-85
2023/12/20 10:38:19;;;;;;;4.35;1.88;;;10.80;99.90;;;;;;5000908;28;20175;-85
2023/12/20 10:40:46;;;;;;;4.07;2.07;;;8.90;99.90;;;;;;4988875;28;20203;-86
2023/12/20 10:43:12;;;;;;;2.53;1.42;;;9.90;99.90;;;;;;4997963;28;20454;-85
2023/12/20 10:45:49;;;;;;;3.03;1.90;;;10.80;99.90;;;;;;4998470;28;20203;-85
2023/12/20 10:48:21;;;;;;;2.20;1.77;;;9.00;99.90;;;;;;5020851;28;20519;-89
2023/12/20 10:50:55;;;;;;;2.25;1.70;;;9.40;99.90;;;;;;5022265;28;20222;-87
2023/12/20 10:53:27;;;;;;;2.25;1.60;;;8.10;99.90;;;;;;5015908;28;20182;-85
2023/12/20 10:55:58;;;;;;;3.75;1.83;;;9.20;99.90;;;;;;4998093;28;20299;-85
2023/12/20 10:58:29;;;;;;;2.22;1.48;;;10.10;99.90;;;;;;5008727;28;20187;-85
2023/12/20 11:01:01;;;;;;;2.10;1.75;;;8.80;99.90;;;;;;5011868;28;20217;-84
2023/12/20 11:03:29;;;;;;;4.93;1.70;;;8.60;99.90;;;;;;5004199;28;20202;-85
2023/12/20 11:06:20;;;;;;;1.85;1.75;;;8.30;99.90;;;;;;5003959;28;20223;-85
2023/12/20 11:08:52;;;;;;;3.70;1.98;;;8.60;99.90;;;;;;5029224;28;20655;-86
2023/12/20 11:11:17;;;;;;;2.92;1.90;;;9.50;99.90;;;;;;5006404;28;20213;-85
2023/12/20 11:14:12;;;;;;;3.30;2.00;;;8.20;99.90;;;;;;5024064;28;20266;-85
2023/12/20 11:16:38;;;;;;;4.53;2.00;;;7.90;99.90;;;;;;5013188;28;20857;-85
2023/12/20 11:19:45;;;;;;;2.40;2.00;;;8.30;99.90;;;;;;4995619;28;20188;-85
2023/12/20 11:33:16;;;;;;;5.55;2.22;;;8.70;99.90;;;;;;5017046;28;20635;-83
2023/12/20 11:37:03;;;;;;;;;;;;;;;;;;;;;
2023/12/20 11:39:31;;;;;;;;;;;;;;;;;;;;;
2023/12/20 11:50:26;;;;;;;4.60;2.75;;;7.20;99.90;;;;;;4992434;28;20714;-83
2023/12/20 11:52:59;;;;;;;5.80;1.90;;;8.40;99.90;;;;;;4979156;28;20654;-86
2023/12/20 11:56:12;;;;;;;4.05;1.60;;;8.10;99.90;;;;;;5017375;23;20218;-84
2023/12/20 11:58:39;;;;;;;4.07;2.83;;;8.70;99.90;;;;;;5034680;28;20198;-84
2023/12/20 12:01:07;;;;;;;1.98;1.55;;;8.20;99.90;;;;;;5024381;28;20191;-85
2023/12/20 12:03:36;;;;;;;2.67;1.90;;;8.40;99.90;;;;;;5008951;28;20220;-84
2023/12/20 12:06:24;;;;;;;3.10;1.80;;;8.40;99.90;;;;;;5031621;28;20171;-84
2023/12/20 12:08:52;;;;;;;3.13;1.75;;;8.50;99.90;;;;;;5038808;28;20261;-84
2023/12/20 12:11:21;;;;;;;3.40;2.33;;;7.70;99.90;;;;;;5031478;28;20272;-84
2023/12/20 12:13:49;;;;;;;3.53;2.30;;;9.90;99.90;;;;;;5021413;28;20206;-83
2023/12/20 12:16:21;;;;;;;4.50;2.40;;;9.50;99.90;;;;;;5019420;28;20615;-85
2023/12/20 12:19:04;;;;;;;5.30;2.13;;;7.50;99.90;;;;;;5039235;28;20205;-85
2023/12/20 12:21:30;;;;;;;3.15;1.80;;;8.10;99.90;;;;;;5016423;28;20209;-85
2023/12/20 12:24:06;;;;;;;3.50;1.60;;;8.30;99.90;;;;;;5034934;28;20206;-85
2023/12/20 12:26:34;;;;;;;2.60;1.75;;;10.20;99.90;;;;;;5016218;28;20276;-85
2023/12/20 12:29:30;;;;;;;;;;;;;;;;;;;;;
2023/12/20 12:35:08;;;;;;;5.47;3.25;;;11.10;99.90;;;;;;5034712;28;20237;-86
2023/12/20 12:37:36;;;;;;;5.45;1.80;;;9.10;99.90;;;;;;5036803;28;20210;-83
2023/12/20 12:40:55;;;;;;;;;;;;;;;;;;;;;
2023/12/20 12:46:41;;;;;;;2.45;1.60;;;8.60;99.80;;;;;;5034629;22;20210;-85
2023/12/20 12:49:07;;;;;;;3.70;2.28;;;8.90;99.50;;;;;;5024663;28;20285;-85
2023/12/20 12:52:15;;;;;;;2.43;1.93;;;9.70;99.90;;;;;;5020865;28;20207;-85
2023/12/20 12:54:44;;;;;;;6.18;1.60;;;9.00;99.50;;;;;;5043654;28;22041;-85
2023/12/20 12:57:12;;;;;;;3.65;2.00;;;8.80;99.90;;;;;;5017539;28;20647;-84
2023/12/20 13:00:28;;;;;;;2.45;2.03;;;9.10;99.80;;;;;;5021962;28;20663;-86
2023/12/20 13:02:54;;;;;;;1.75;1.35;;;8.40;99.40;;;;;;5014536;28;20190;-85
2023/12/20 13:05:21;;;;;;;2.57;1.70;;;10.50;99.90;;;;;;5019946;28;20717;-85
2023/12/20 13:07:49;;;;;;;2.25;1.50;;;9.60;99.90;;;;;;5025007;28;20190;-83
2023/12/20 13:10:16;;;;;;;2.53;1.80;;;9.40;99.90;;;;;;5023370;28;20338;-85
2023/12/20 13:12:42;;;;;;;2.70;1.80;;;8.70;98.70;;;;;;5016387;28;20273;-83
2023/12/20 13:15:09;;;;;;;2.03;1.58;;;8.40;98.90;;;;;;5023381;28;20199;-83
2023/12/20 13:17:34;;;;;;;8.15;4.55;;;8.40;99.10;;;;;;5023192;28;20253;-84
2023/12/20 13:20:00;;;;;;;1.73;1.50;;;9.10;99.80;;;;;;5041721;28;20211;-83
2023/12/20 13:22:25;;;;;;;2.97;1.43;;;10.70;99.90;;;;;;5038132;28;20190;-84
2023/12/20 13:24:51;;;;;;;4.10;1.33;;;9.00;99.20;;;;;;5024194;28;20209;-85
2023/12/20 13:27:20;;;;;;;4.30;1.43;;;8.70;99.10;;;;;;5005498;28;20780;-86
2023/12/20 13:29:46;;;;;;;2.83;1.52;;;;;;;;;;5018108;28;20563;-84
2023/12/20 13:32:11;;;;;;;2.58;1.60;;;8.80;98.70;;;;;;5022173;28;20238;-85
2023/12/20 13:34:37;;;;;;;3.50;1.73;;;9.40;99.80;;;;;;5020964;28;20231;-84
2023/12/20 13:37:04;;;;;;;2.13;1.70;;;8.30;98.40;;;;;;5026769;28;20278;-85
2023/12/20 13:39:31;;;;;;;3.40;1.70;;;9.20;99.70;;;;;;5020196;28;20194;-84
2023/12/20 13:41:57;;;;;;;2.83;1.20;;;9.60;99.10;;;;;;5026760;28;20187;-84
2023/12/20 13:44:22;;;;;;;5.77;1.40;;;11.00;98.90;;;;;;5032478;28;20223;-84
2023/12/20 13:46:49;;;;;;;4.23;1.90;;;9.00;98.50;;;;;;5024786;28;20418;-84
2023/12/20 13:49:15;;;;;;;3.40;1.50;;;8.80;98.10;;;;;;5039329;28;20238;-85
2023/12/20 13:51:41;;;;;;;1.40;1.30;;;9.30;98.90;;;;;;5043120;28;20882;-84
2023/12/20 13:54:06;;;;;;;2.47;1.20;;;9.10;98.80;;;;;;5031346;28;20219;-84
2023/12/20 13:56:33;;;;;;;6.20;1.23;;;9.50;99.10;;;;;;5026741;28;20190;-84
2023/12/20 13:58:59;;;;;;;1.85;1.65;;;8.70;98.80;;;;;;5025529;28;20526;-84
2023/12/20 14:01:26;;;;;;;4.20;1.42;;;8.20;98.60;;;;;;5018679;28;20275;-84
2023/12/20 14:03:52;;;;;;;2.33;1.30;;;8.50;99.30;;;;;;5031330;28;20206;-84
2023/12/20 14:06:19;;;;;;;4.30;2.00;;;8.80;99.70;;;;;;5040553;28;20465;-84
2023/12/20 14:08:45;;;;;;;3.90;1.30;;;8.70;99.30;;;;;;5041842;28;20221;-83
2023/12/20 14:11:11;;;;;;;3.70;1.30;;;9.00;99.40;;;;;;5026305;28;20213;-83
2023/12/20 14:13:43;;;;;;;3.07;1.40;;;8.20;99.50;;;;;;5024729;28;20301;-84
2023/12/20 14:16:10;;;;;;;3.35;1.40;;;7.70;99.70;;;;;;5022589;28;20488;-83
2023/12/20 14:18:36;;;;;;;5.35;1.52;;;8.30;99.90;;;;;;5023304;28;20182;-83
2023/12/20 14:21:01;;;;;;;7.20;2.57;;;8.30;99.90;;;;;;5022127;28;20188;-84
2023/12/20 14:23:27;;;;;;;2.17;1.50;;;8.30;99.90;;;;;;5022660;28;20182;-84
2023/12/20 14:25:53;;;;;;;3.58;1.50;;;8.30;99.90;;;;;;5007083;28;20497;-83
2023/12/20 14:28:19;;;;;;;3.57;1.30;;;8.50;99.90;;;;;;5017079;28;20194;-83
2023/12/20 14:30:45;;;;;;;3.15;1.67;;;7.90;99.90;;;;;;5020215;28;20229;-83
2023/12/20 14:33:11;;;;;;;3.13;1.23;;;8.40;99.90;;;;;;5022346;28;20210;-83
2023/12/20 14:35:36;;;;;;;2.40;1.10;;;8.10;99.90;;;;;;5020097;28;20261;-84
2023/12/20 14:38:04;;;;;;;2.90;1.40;;;9.00;99.90;;;;;;5018207;28;20182;-83
2023/12/20 14:40:29;;;;;;;2.65;1.30;;;8.00;99.90;;;;;;5024072;28;20194;-84
2023/12/20 14:42:55;;;;;;;3.83;1.50;;;7.90;99.90;;;;;;5019777;28;21013;-86
2023/12/20 14:45:20;;;;;;;2.20;1.10;;;8.20;99.90;;;;;;5021882;28;20219;-84
2023/12/20 14:47:47;;;;;;;3.33;1.90;;;8.20;99.90;;;;;;5027222;28;20258;-85
2023/12/20 14:50:18;;;;;;;3.67;1.40;;;8.30;99.90;;;;;;5027096;28;20265;-86
2023/12/20 14:52:45;;;;;;;4.20;2.35;;;7.90;99.90;;;;;;5031846;28;20182;-85
2023/12/20 14:55:10;;;;;;;2.10;1.55;;;8.30;99.90;;;;;;5031345;28;20198;-87
2023/12/20 14:57:36;;;;;;;2.50;1.80;;;7.70;99.90;;;;;;5031769;28;20206;-87
2023/12/20 15:00:02;;;;;;;4.50;1.37;;;7.70;99.90;;;;;;5017230;28;20186;-88
2023/12/20 15:02:27;;;;;;;1.42;1.20;;;7.80;99.90;;;;;;5000190;28;20195;-88
2023/12/20 15:04:53;;;;;;;2.43;1.53;;;8.10;99.90;;;;;;5015576;28;20221;-89
2023/12/20 15:10:25;;;;;;;3.05;1.58;;;7.90;99.90;;;;;;5030637;28;20298;-88
2023/12/20 15:12:51;;;;;;;3.08;2.08;;;9.40;99.90;;;;;;5017506;28;20193;-88
2023/12/20 15:15:17;;;;;;;2.60;1.70;;;7.60;99.90;;;;;;5012336;28;20198;-88
2023/12/20 15:17:43;;;;;;;4.75;1.52;;;9.80;99.90;;;;;;5016434;28;20198;-88
2023/12/20 15:20:26;;;;;;;2.20;1.60;;;8.90;99.90;;;;;;5013482;28;20889;-88
2023/12/20 15:23:17;;;;;;;2.85;1.70;;;9.40;99.90;;;;;;5016551;28;20478;-87
2023/12/20 15:26:36;;;;;;;3.83;2.40;;;8.60;99.90;;;;;;5010845;28;20221;-87
2023/12/20 17:01:45;;;;;;;2.53;1.55;;;6.80;99.90;;;;;;6032950;22;20236;-85
2023/12/20 17:04:11;;;;;;;2.20;1.63;;;;;;;;;;5033624;28;20206;-86
2023/12/20 17:06:40;;;;;;;5.65;2.17;;;6.70;99.90;;;;;;5033401;28;20336;-85
2023/12/20 17:09:10;;;;;;;2.35;1.55;;;7.80;99.90;;;;;;5055651;28;20847;-89
2023/12/20 17:18:48;;;;;;;1.73;1.50;;;5.10;99.90;;;;;;4988003;28;20759;-88
2023/12/20 17:21:54;;;;;;;6.07;2.90;;;8.00;99.90;;;;;;5008308;28;20189;-87
2023/12/20 17:28:51;;;;;;;3.70;2.42;;;7.20;99.90;;;;;;4970531;28;20192;-86
2023/12/20 17:35:09;;;;;;;;;;;;;;;;;;;;;
2023/12/20 17:37:57;;;;;;;4.10;1.83;;;8.00;99.90;;;;;;5021999;28;20188;-86
2023/12/20 17:43:28;;;;;;;3.65;2.17;;;;;;;;;;5012396;28;20194;-87
2023/12/20 20:49:11;;;;;;;2.40;1.42;;;6.30;99.90;;;;;;4488999;22;20536;-92
2023/12/20 21:38:51;;;;;;;1.60;1.20;;;7.00;99.90;;;;;;5016537;28;20293;-87
2023/12/20 21:41:17;;;;;;;3.17;1.40;;;6.70;99.90;;;;;;5001884;28;20350;-86
2023/12/20 21:43:43;;;;;;;2.10;1.43;;;;;;;;;;4999673;28;20337;-87
2023/12/20 21:46:08;;;;;;;2.27;1.47;;;6.80;99.90;;;;;;5016398;28;20197;-88
2023/12/20 21:48:34;;;;;;;2.20;1.20;;;6.90;99.90;;;;;;5015787;28;20453;-87
2023/12/20 21:50:59;;;;;;;1.50;1.40;;;6.30;99.90;;;;;;5015730;28;20228;-87
2023/12/20 21:53:25;;;;;;;2.33;1.17;;;6.60;99.90;;;;;;5019339;28;20186;-87
2023/12/20 21:55:50;;;;;;;2.93;1.70;;;6.80;99.90;;;;;;5020751;28;20196;-87
2023/12/20 21:58:16;;;;;;;1.87;1.50;;;6.50;99.90;;;;;;5031583;28;20190;-87
2023/12/20 22:00:41;;;;;;;1.70;1.60;;;6.60;99.90;;;;;;5021278;28;20729;-87
2023/12/20 22:03:10;;;;;;;2.93;1.43;;;6.50;99.90;;;;;;5019596;28;20186;-87
2023/12/20 22:05:37;;;;;;;2.38;1.13;;;7.00;99.90;;;;;;5035729;28;20245;-88
2023/12/20 22:08:03;;;;;;;4.38;1.30;;;6.70;99.90;;;;;;5031688;28;20212;-87
2023/12/20 22:10:29;;;;;;;1.83;1.25;;;6.50;99.90;;;;;;5019292;28;20214;-87
2023/12/20 22:12:55;;;;;;;1.43;1.20;;;6.40;99.90;;;;;;5016388;28;20190;-87
2023/12/20 22:15:20;;;;;;;3.10;1.53;;;6.60;99.90;;;;;;5018407;28;20455;-88
2023/12/20 22:17:46;;;;;;;3.30;1.80;;;6.70;99.90;;;;;;5017744;28;20727;-87
2023/12/20 22:20:11;;;;;;;1.93;1.50;;;6.90;99.90;;;;;;5020436;28;20240;-88
2023/12/20 22:22:37;;;;;;;1.73;1.20;;;6.60;99.90;;;;;;5015214;28;20232;-86
2023/12/20 22:25:03;;;;;;;3.67;1.20;;;6.60;99.90;;;;;;5010950;28;20205;-88
2023/12/20 22:27:29;;;;;;;2.90;1.63;;;6.80;99.90;;;;;;5011966;28;20653;-88
2023/12/20 22:29:54;;;;;;;1.20;1.10;;;7.20;99.90;;;;;;5010255;28;20197;-87
2023/12/20 22:32:20;;;;;;;2.13;1.20;;;6.50;99.90;;;;;;5025888;28;20192;-87
2023/12/20 22:34:45;;;;;;;1.63;1.53;;;6.60;99.90;;;;;;5029244;28;20297;-88
2023/12/20 22:37:11;;;;;;;1.47;1.33;;;7.10;99.90;;;;;;5026209;28;20337;-87
2023/12/20 22:39:36;;;;;;;1.60;1.40;;;6.70;99.90;;;;;;5026300;28;20186;-88
2023/12/20 22:42:02;;;;;;;1.37;1.27;;;6.80;99.90;;;;;;5030454;28;20672;-87
2023/12/20 22:44:28;;;;;;;1.92;1.40;;;6.90;99.90;;;;;;5031702;28;20261;-87
2023/12/20 22:46:53;;;;;;;2.43;2.03;;;7.10;99.90;;;;;;5030781;28;20195;-87
2023/12/20 22:49:19;;;;;;;2.00;1.13;;;7.10;99.90;;;;;;5046196;28;20205;-87
2023/12/20 22:51:44;;;;;;;4.57;1.83;;;6.80;99.90;;;;;;5040499;28;20213;-87
2023/12/20 22:54:10;;;;;;;1.40;1.20;;;6.80;99.90;;;;;;5026617;28;20210;-87
2023/12/20 22:56:35;;;;;;;1.40;1.30;;;7.20;99.90;;;;;;5028233;28;20357;-88
2023/12/20 22:59:01;;;;;;;2.43;1.20;;;6.80;99.90;;;;;;5023638;28;20428;-87
2023/12/20 23:01:26;;;;;;;2.33;1.10;;;6.70;99.90;;;;;;5035707;28;20553;-87
2023/12/20 23:03:52;;;;;;;1.53;1.30;;;7.10;99.90;;;;;;5024946;28;20617;-87
2023/12/20 23:06:17;;;;;;;1.30;1.20;;;6.70;99.90;;;;;;5019709;28;20201;-88
2023/12/20 23:08:43;;;;;;;1.60;1.40;;;6.90;99.90;;;;;;5020216;28;20197;-87
2023/12/20 23:11:08;;;;;;;2.20;1.73;;;6.90;99.90;;;;;;5010531;28;20272;-87
2023/12/20 23:13:34;;;;;;;2.70;1.20;;;6.90;99.90;;;;;;5011742;28;20757;-87
2023/12/20 23:15:59;;;;;;;1.53;1.43;;;7.00;99.90;;;;;;5019065;28;20189;-87
2023/12/20 23:18:25;;;;;;;2.60;1.20;;;6.90;99.90;;;;;;5014653;28;20189;-87
2023/12/20 23:20:50;;;;;;;1.70;1.20;;;7.00;99.90;;;;;;4999650;28;20193;-87
2023/12/20 23:23:16;;;;;;;2.83;1.40;;;7.10;99.90;;;;;;5017386;28;20197;-88
2023/12/20 23:25:44;;;;;;;1.33;1.20;;;6.90;99.90;;;;;;5015089;28;20210;-88
2023/12/20 23:28:09;;;;;;;3.22;1.42;;;6.90;99.90;;;;;;5014173;28;20197;-88
2023/12/20 23:30:37;;;;;;;1.90;1.10;;;7.10;99.90;;;;;;5013360;28;20210;-88
2023/12/20 23:33:02;;;;;;;1.23;1.10;;;7.10;99.90;;;;;;5018475;28;20186;-87
2023/12/20 23:35:28;;;;;;;3.93;1.70;;;7.80;99.90;;;;;;5015841;28;20335;-87
2023/12/20 23:37:54;;;;;;;1.53;1.23;;;8.10;99.90;;;;;;5027187;28;20186;-87
2023/12/20 23:40:19;;;;;;;1.30;1.20;;;7.20;99.90;;;;;;5031091;28;20189;-87
2023/12/20 23:42:45;;;;;;;2.50;1.70;;;7.00;99.90;;;;;;5038068;28;20180;-87
2023/12/20 23:45:10;;;;;;;2.20;1.23;;;7.20;99.90;;;;;;5035823;28;20570;-87
2023/12/20 23:47:36;;;;;;;2.47;1.30;;;7.10;99.90;;;;;;5032540;28;20198;-87
2023/12/20 23:50:02;;;;;;;2.35;1.13;;;7.00;99.90;;;;;;5017763;28;20692;-87
2023/12/20 23:52:28;;;;;;;2.33;1.30;;;7.20;99.90;;;;;;5026512;28;20215;-88
2023/12/20 23:54:53;;;;;;;1.70;1.03;;;7.20;99.90;;;;;;5009711;28;20220;-88
2023/12/20 23:57:18;;;;;;;1.00;0.83;;;6.60;99.90;;;;;;5016254;28;20190;-88
2023/12/20 23:59:44;;;;;;;1.07;0.90;;;7.30;99.90;;;;;;5014768;28;20761;-87
